Tropical Cyclones
[Index]
Main Index Home Page Stock Weather Photos Extreme Storms Discussion Storm News and Storm Chasing Reports Tropical Cyclones / Hurricanes / Typhoons Weather Data and Links Wild Fires / Bushfires Weather Observation Techniques Weather Picture Catalogue Tornado Pictures and Reports Stock Video Footage and DVDs for sale
Season 2012-2013 Tropical Cyclone ANAIS Track Map
Season 2012-2013 Summaries: [BoM-AU] [JTWC-AU] [JTWC-SIO] [JTWC-SPAC] [JTWC-SH]
<<- Previous TC | JTWC 2012-2013 Season | Next TC ->>

click for intensity scale information  Lat/long Grid: Show Hide

 Date Labels: Show Hide

Joint Typhoon Warning Centre Cyclone Data

Name: ANAIS

11 Oct 2012 12:00 UTC to 18 Oct 2012 18:00 UTC

    date/time    lat    long     hPa   cat  kts
2012-10-11 12    5.8    72.0    1010         15          
2012-10-11 18    6.2    72.5    1004         25          
2012-10-12 00    6.9    72.0    1000         30          
2012-10-12 06    7.5    71.4    1000         30          
2012-10-12 12    7.9    71.1     996         35          
2012-10-12 18    8.4    70.7     993    1    40          
2012-10-13 00    9.0    70.0     989    1    45          
2012-10-13 06    9.5    69.3     985    1    50          
2012-10-13 12   10.0    68.5     974    2    65          
2012-10-13 12   10.0    68.5     974    2    65          
2012-10-13 18   10.5    67.8     963    3    80          
2012-10-13 18   10.5    67.8     963    3    80          
2012-10-13 18   10.5    67.8     963    3    80          
2012-10-14 00   10.8    66.9     959    3    85          
2012-10-14 00   10.8    66.9     959    3    85          
2012-10-14 00   10.8    66.9     959    3    85          
2012-10-14 06   11.0    66.3     952    3    95          
2012-10-14 06   11.0    66.3     952    3    95          
2012-10-14 06   11.0    66.3     952    3    95          
2012-10-14 12   11.4    65.8     944    4   105          
2012-10-14 12   11.4    65.8     944    4   105          
2012-10-14 12   11.4    65.8     944    4   105          
2012-10-14 18   11.9    65.4     937    4   115          
2012-10-14 18   11.9    65.4     937    4   115          
2012-10-14 18   11.9    65.4     937    4   115          
2012-10-15 00   12.4    64.9     937    4   115          
2012-10-15 00   12.4    64.9     937    4   115          
2012-10-15 00   12.4    64.9     937    4   115          
2012-10-15 06   12.8    64.3     937    4   115          
2012-10-15 06   12.8    64.3     937    4   115          
2012-10-15 06   12.8    64.3     937    4   115          
2012-10-15 12   13.4    63.8     948    4   100          
2012-10-15 12   13.4    63.8     948    4   100          
2012-10-15 12   13.4    63.8     948    4   100          
2012-10-15 18   13.5    62.9     956    3    90          
2012-10-15 18   13.5    62.9     956    3    90          
2012-10-15 18   13.5    62.9     956    3    90          
2012-10-16 00   13.7    62.0     967    3    75          
2012-10-16 00   13.7    62.0     967    3    75          
2012-10-16 00   13.7    62.0     967    3    75          
2012-10-16 06   13.9    61.1     978    2    60          
2012-10-16 06   13.9    61.1     978    2    60          
2012-10-16 12   14.2    60.2     978    2    60          
2012-10-16 12   14.2    60.2     978    2    60          
2012-10-16 18   14.6    59.2     982    2    55          
2012-10-16 18   14.6    59.2     982    2    55          
2012-10-17 00   15.0    58.4     989    1    45          
2012-10-17 06   15.4    57.6     993    1    40          
2012-10-17 12   15.7    56.6     996         35          
2012-10-17 18   15.9    55.6     996         35          
2012-10-18 00   16.0    54.9    1000         30          
2012-10-18 06   16.0    54.4    1000         30          
2012-10-18 12   16.1    53.6    1000         30          
2012-10-18 18   16.6    52.7    1000         30          
Winds are 1-min average.

Tropical cyclone tracks developed by Michael Bath using data from the Joint Typhoon Warning Centre Best Tracks and Google Maps.


[Australian Severe Weather index] [Copyright Notice] [Email Contacts] [Search This Site] [Privacy Policy]
Document: tropical_cyclone_anais.htm Updated: 28 June 2017